sensor_id;sensor_type;location;lat;lon;timestamp;P1;durP1;ratioP1;P2;durP2;ratioP2
9076;SDS011;4574;51.072;17.174;2023-07-29T00:02:13;2.37;;;2.17;;
9076;SDS011;4574;51.072;17.174;2023-07-29T00:04:41;2.10;;;1.93;;
9076;SDS011;4574;51.072;17.174;2023-07-29T00:07:10;4.40;;;2.50;;
9076;SDS011;4574;51.072;17.174;2023-07-29T00:09:40;2.50;;;2.13;;
9076;SDS011;4574;51.072;17.174;2023-07-29T00:12:08;4.17;;;2.27;;
9076;SDS011;4574;51.072;17.174;2023-07-29T00:14:37;2.20;;;1.93;;
9076;SDS011;4574;51.072;17.174;2023-07-29T00:17:05;2.57;;;2.27;;
9076;SDS011;4574;51.072;17.174;2023-07-29T00:19:34;2.03;;;1.93;;
9076;SDS011;4574;51.072;17.174;2023-07-29T00:22:02;2.67;;;2.40;;
9076;SDS011;4574;51.072;17.174;2023-07-29T00:24:32;3.63;;;2.27;;
9076;SDS011;4574;51.072;17.174;2023-07-29T00:27:02;5.20;;;2.47;;
9076;SDS011;4574;51.072;17.174;2023-07-29T00:29:31;3.20;;;2.30;;
9076;SDS011;4574;51.072;17.174;2023-07-29T00:31:59;2.63;;;2.40;;
9076;SDS011;4574;51.072;17.174;2023-07-29T00:34:28;2.17;;;1.97;;
9076;SDS011;4574;51.072;17.174;2023-07-29T00:36:57;3.07;;;2.63;;
9076;SDS011;4574;51.072;17.174;2023-07-29T00:39:26;10.10;;;2.87;;
9076;SDS011;4574;51.072;17.174;2023-07-29T00:41:55;5.37;;;2.63;;
9076;SDS011;4574;51.072;17.174;2023-07-29T00:44:26;9.77;;;3.20;;
9076;SDS011;4574;51.072;17.174;2023-07-29T00:46:54;6.83;;;3.40;;
9076;SDS011;4574;51.072;17.174;2023-07-29T00:49:24;4.27;;;3.10;;
9076;SDS011;4574;51.072;17.174;2023-07-29T00:51:53;4.77;;;2.83;;
9076;SDS011;4574;51.072;17.174;2023-07-29T00:54:22;2.83;;;2.30;;
9076;SDS011;4574;51.072;17.174;2023-07-29T00:56:52;5.60;;;4.00;;
9076;SDS011;4574;51.072;17.174;2023-07-29T00:59:20;8.70;;;4.10;;
9076;SDS011;4574;51.072;17.174;2023-07-29T01:01:51;3.67;;;2.60;;
9076;SDS011;4574;51.072;17.174;2023-07-29T01:04:20;2.70;;;2.27;;
9076;SDS011;4574;51.072;17.174;2023-07-29T01:06:50;4.93;;;4.00;;
9076;SDS011;4574;51.072;17.174;2023-07-29T01:09:29;5.00;;;2.30;;
9076;SDS011;4574;51.072;17.174;2023-07-29T01:12:08;3.00;;;2.10;;
9076;SDS011;4574;51.072;17.174;2023-07-29T01:14:50;5.03;;;2.20;;
9076;SDS011;4574;51.072;17.174;2023-07-29T01:17:28;3.07;;;2.10;;
9076;SDS011;4574;51.072;17.174;2023-07-29T01:20:06;4.20;;;2.40;;
9076;SDS011;4574;51.072;17.174;2023-07-29T01:22:37;1.83;;;1.67;;
9076;SDS011;4574;51.072;17.174;2023-07-29T01:25:08;5.00;;;2.20;;
9076;SDS011;4574;51.072;17.174;2023-07-29T01:27:37;1.93;;;1.83;;
9076;SDS011;4574;51.072;17.174;2023-07-29T01:30:06;2.33;;;2.13;;
9076;SDS011;4574;51.072;17.174;2023-07-29T01:32:39;2.30;;;2.13;;
9076;SDS011;4574;51.072;17.174;2023-07-29T01:35:24;2.60;;;2.10;;
9076;SDS011;4574;51.072;17.174;2023-07-29T01:37:59;2.50;;;2.30;;
9076;SDS011;4574;51.072;17.174;2023-07-29T01:40:34;4.40;;;2.40;;
9076;SDS011;4574;51.072;17.174;2023-07-29T01:43:03;3.37;;;2.40;;
9076;SDS011;4574;51.072;17.174;2023-07-29T01:45:34;2.40;;;2.20;;
9076;SDS011;4574;51.072;17.174;2023-07-29T01:48:05;3.40;;;2.30;;
9076;SDS011;4574;51.072;17.174;2023-07-29T01:50:33;3.87;;;2.80;;
9076;SDS011;4574;51.072;17.174;2023-07-29T01:53:02;3.07;;;2.77;;
9076;SDS011;4574;51.072;17.174;2023-07-29T01:55:30;5.20;;;2.50;;
9076;SDS011;4574;51.072;17.174;2023-07-29T01:58:00;4.90;;;2.60;;
9076;SDS011;4574;51.072;17.174;2023-07-29T02:00:29;6.53;;;2.73;;
9076;SDS011;4574;51.072;17.174;2023-07-29T02:02:57;3.33;;;2.80;;
9076;SDS011;4574;51.072;17.174;2023-07-29T02:05:26;3.40;;;2.40;;
9076;SDS011;4574;51.072;17.174;2023-07-29T02:07:54;3.50;;;2.43;;
9076;SDS011;4574;51.072;17.174;2023-07-29T02:10:23;2.97;;;2.53;;
9076;SDS011;4574;51.072;17.174;2023-07-29T02:12:51;3.50;;;2.57;;
9076;SDS011;4574;51.072;17.174;2023-07-29T02:15:21;2.83;;;2.20;;
9076;SDS011;4574;51.072;17.174;2023-07-29T02:17:50;3.67;;;2.50;;
9076;SDS011;4574;51.072;17.174;2023-07-29T02:20:19;3.37;;;2.53;;
9076;SDS011;4574;51.072;17.174;2023-07-29T02:22:47;2.40;;;2.20;;
9076;SDS011;4574;51.072;17.174;2023-07-29T02:25:16;3.90;;;2.27;;
9076;SDS011;4574;51.072;17.174;2023-07-29T02:27:44;2.67;;;2.43;;
9076;SDS011;4574;51.072;17.174;2023-07-29T02:30:13;3.87;;;2.50;;
9076;SDS011;4574;51.072;17.174;2023-07-29T02:32:43;4.03;;;2.60;;
9076;SDS011;4574;51.072;17.174;2023-07-29T02:35:12;2.73;;;2.00;;
9076;SDS011;4574;51.072;17.174;2023-07-29T02:37:41;3.77;;;2.00;;
9076;SDS011;4574;51.072;17.174;2023-07-29T02:40:10;5.87;;;2.57;;
9076;SDS011;4574;51.072;17.174;2023-07-29T02:42:39;3.47;;;2.03;;
9076;SDS011;4574;51.072;17.174;2023-07-29T02:45:08;2.30;;;2.10;;
9076;SDS011;4574;51.072;17.174;2023-07-29T02:47:38;3.27;;;2.00;;
9076;SDS011;4574;51.072;17.174;2023-07-29T02:50:08;2.60;;;2.00;;
9076;SDS011;4574;51.072;17.174;2023-07-29T02:52:37;3.03;;;2.17;;
9076;SDS011;4574;51.072;17.174;2023-07-29T02:55:06;3.03;;;2.23;;
9076;SDS011;4574;51.072;17.174;2023-07-29T02:57:35;2.90;;;2.23;;
9076;SDS011;4574;51.072;17.174;2023-07-29T03:00:04;3.20;;;2.83;;
9076;SDS011;4574;51.072;17.174;2023-07-29T03:02:34;4.97;;;2.87;;
9076;SDS011;4574;51.072;17.174;2023-07-29T03:05:03;2.37;;;2.17;;
9076;SDS011;4574;51.072;17.174;2023-07-29T03:07:33;4.53;;;2.50;;
9076;SDS011;4574;51.072;17.174;2023-07-29T03:10:02;3.80;;;2.67;;
9076;SDS011;4574;51.072;17.174;2023-07-29T03:12:31;3.53;;;2.50;;
9076;SDS011;4574;51.072;17.174;2023-07-29T03:14:59;2.30;;;2.10;;
9076;SDS011;4574;51.072;17.174;2023-07-29T03:17:28;3.20;;;2.00;;
9076;SDS011;4574;51.072;17.174;2023-07-29T03:19:57;2.30;;;2.03;;
9076;SDS011;4574;51.072;17.174;2023-07-29T03:22:25;1.80;;;1.70;;
9076;SDS011;4574;51.072;17.174;2023-07-29T03:24:55;2.33;;;2.13;;
9076;SDS011;4574;51.072;17.174;2023-07-29T03:27:24;4.30;;;1.97;;
9076;SDS011;4574;51.072;17.174;2023-07-29T03:29:53;2.33;;;2.07;;
9076;SDS011;4574;51.072;17.174;2023-07-29T03:32:21;3.73;;;2.20;;
9076;SDS011;4574;51.072;17.174;2023-07-29T03:34:50;3.07;;;2.23;;
9076;SDS011;4574;51.072;17.174;2023-07-29T03:37:18;4.30;;;2.50;;
9076;SDS011;4574;51.072;17.174;2023-07-29T03:39:48;2.33;;;2.13;;
9076;SDS011;4574;51.072;17.174;2023-07-29T03:42:20;1.80;;;1.70;;
9076;SDS011;4574;51.072;17.174;2023-07-29T03:44:48;2.50;;;2.27;;
9076;SDS011;4574;51.072;17.174;2023-07-29T03:47:16;2.50;;;2.30;;
9076;SDS011;4574;51.072;17.174;2023-07-29T03:49:45;2.93;;;2.60;;
9076;SDS011;4574;51.072;17.174;2023-07-29T03:52:13;3.17;;;2.73;;
9076;SDS011;4574;51.072;17.174;2023-07-29T03:54:42;5.30;;;2.80;;
9076;SDS011;4574;51.072;17.174;2023-07-29T03:57:11;2.97;;;2.67;;
9076;SDS011;4574;51.072;17.174;2023-07-29T03:59:40;5.13;;;2.57;;
9076;SDS011;4574;51.072;17.174;2023-07-29T04:02:09;5.10;;;2.40;;
9076;SDS011;4574;51.072;17.174;2023-07-29T04:04:38;2.83;;;2.47;;
9076;SDS011;4574;51.072;17.174;2023-07-29T04:07:08;2.73;;;2.30;;
9076;SDS011;4574;51.072;17.174;2023-07-29T04:09:37;3.63;;;2.57;;
9076;SDS011;4574;51.072;17.174;2023-07-29T04:12:05;8.13;;;2.50;;
9076;SDS011;4574;51.072;17.174;2023-07-29T04:14:34;4.83;;;2.50;;
9076;SDS011;4574;51.072;17.174;2023-07-29T04:17:05;2.20;;;2.00;;
9076;SDS011;4574;51.072;17.174;2023-07-29T04:19:33;4.20;;;2.30;;
9076;SDS011;4574;51.072;17.174;2023-07-29T04:22:02;3.23;;;2.03;;
9076;SDS011;4574;51.072;17.174;2023-07-29T04:24:31;6.07;;;2.30;;
9076;SDS011;4574;51.072;17.174;2023-07-29T04:26:59;3.47;;;2.30;;
9076;SDS011;4574;51.072;17.174;2023-07-29T04:29:28;4.70;;;2.40;;
9076;SDS011;4574;51.072;17.174;2023-07-29T04:31:56;3.83;;;2.10;;
9076;SDS011;4574;51.072;17.174;2023-07-29T04:34:26;3.70;;;2.67;;
9076;SDS011;4574;51.072;17.174;2023-07-29T04:36:55;4.20;;;2.57;;
9076;SDS011;4574;51.072;17.174;2023-07-29T04:39:23;3.57;;;2.47;;
9076;SDS011;4574;51.072;17.174;2023-07-29T04:41:52;5.07;;;2.53;;
9076;SDS011;4574;51.072;17.174;2023-07-29T04:44:21;4.00;;;2.33;;
9076;SDS011;4574;51.072;17.174;2023-07-29T04:46:49;3.80;;;2.70;;
9076;SDS011;4574;51.072;17.174;2023-07-29T04:49:17;6.43;;;2.30;;
9076;SDS011;4574;51.072;17.174;2023-07-29T04:51:47;7.37;;;2.40;;
9076;SDS011;4574;51.072;17.174;2023-07-29T04:54:16;4.87;;;2.37;;
9076;SDS011;4574;51.072;17.174;2023-07-29T04:56:47;2.30;;;2.10;;
9076;SDS011;4574;51.072;17.174;2023-07-29T04:59:16;5.27;;;2.80;;
9076;SDS011;4574;51.072;17.174;2023-07-29T05:01:44;3.77;;;2.50;;
9076;SDS011;4574;51.072;17.174;2023-07-29T05:04:14;3.33;;;2.70;;
9076;SDS011;4574;51.072;17.174;2023-07-29T05:06:43;2.77;;;2.57;;
9076;SDS011;4574;51.072;17.174;2023-07-29T05:09:13;4.47;;;2.70;;
9076;SDS011;4574;51.072;17.174;2023-07-29T05:11:43;2.60;;;2.40;;
9076;SDS011;4574;51.072;17.174;2023-07-29T05:14:12;2.50;;;2.30;;
9076;SDS011;4574;51.072;17.174;2023-07-29T05:16:41;3.30;;;2.60;;
9076;SDS011;4574;51.072;17.174;2023-07-29T05:19:10;3.60;;;2.53;;
9076;SDS011;4574;51.072;17.174;2023-07-29T05:21:38;4.83;;;2.43;;
9076;SDS011;4574;51.072;17.174;2023-07-29T05:24:07;3.27;;;2.97;;
9076;SDS011;4574;51.072;17.174;2023-07-29T05:26:38;2.90;;;2.57;;
9076;SDS011;4574;51.072;17.174;2023-07-29T05:29:07;6.27;;;3.77;;
9076;SDS011;4574;51.072;17.174;2023-07-29T05:31:35;3.20;;;2.63;;
9076;SDS011;4574;51.072;17.174;2023-07-29T05:34:04;2.97;;;2.67;;
9076;SDS011;4574;51.072;17.174;2023-07-29T05:36:32;2.93;;;2.57;;
9076;SDS011;4574;51.072;17.174;2023-07-29T05:39:01;2.50;;;2.30;;
9076;SDS011;4574;51.072;17.174;2023-07-29T05:41:30;3.97;;;2.20;;
9076;SDS011;4574;51.072;17.174;2023-07-29T05:44:00;2.70;;;2.30;;
9076;SDS011;4574;51.072;17.174;2023-07-29T05:46:29;2.63;;;2.20;;
9076;SDS011;4574;51.072;17.174;2023-07-29T05:48:58;3.40;;;2.30;;
9076;SDS011;4574;51.072;17.174;2023-07-29T05:51:26;3.77;;;2.23;;
9076;SDS011;4574;51.072;17.174;2023-07-29T05:53:55;3.13;;;2.00;;
9076;SDS011;4574;51.072;17.174;2023-07-29T05:56:24;7.53;;;2.40;;
9076;SDS011;4574;51.072;17.174;2023-07-29T05:58:52;5.33;;;2.10;;
9076;SDS011;4574;51.072;17.174;2023-07-29T06:01:22;4.03;;;2.27;;
9076;SDS011;4574;51.072;17.174;2023-07-29T06:03:51;2.67;;;1.90;;
9076;SDS011;4574;51.072;17.174;2023-07-29T06:06:20;3.23;;;1.90;;
9076;SDS011;4574;51.072;17.174;2023-07-29T06:08:50;2.30;;;2.10;;
9076;SDS011;4574;51.072;17.174;2023-07-29T06:11:18;5.57;;;2.00;;
9076;SDS011;4574;51.072;17.174;2023-07-29T06:13:47;2.77;;;1.80;;
9076;SDS011;4574;51.072;17.174;2023-07-29T06:16:15;3.27;;;1.80;;
9076;SDS011;4574;51.072;17.174;2023-07-29T06:18:45;5.47;;;2.37;;
9076;SDS011;4574;51.072;17.174;2023-07-29T06:21:14;3.73;;;1.80;;
9076;SDS011;4574;51.072;17.174;2023-07-29T06:23:43;3.97;;;1.90;;
9076;SDS011;4574;51.072;17.174;2023-07-29T06:26:12;2.37;;;1.80;;
9076;SDS011;4574;51.072;17.174;2023-07-29T06:28:40;3.43;;;1.70;;
9076;SDS011;4574;51.072;17.174;2023-07-29T06:31:09;3.97;;;1.63;;
9076;SDS011;4574;51.072;17.174;2023-07-29T06:33:37;1.70;;;1.53;;
9076;SDS011;4574;51.072;17.174;2023-07-29T06:36:07;2.80;;;1.90;;
9076;SDS011;4574;51.072;17.174;2023-07-29T06:38:36;1.67;;;1.40;;
9076;SDS011;4574;51.072;17.174;2023-07-29T06:41:05;1.60;;;1.50;;
9076;SDS011;4574;51.072;17.174;2023-07-29T06:43:33;2.60;;;1.67;;
9076;SDS011;4574;51.072;17.174;2023-07-29T06:46:02;3.37;;;1.60;;
9076;SDS011;4574;51.072;17.174;2023-07-29T06:48:31;2.00;;;1.83;;
9076;SDS011;4574;51.072;17.174;2023-07-29T06:50:59;2.00;;;1.60;;
9076;SDS011;4574;51.072;17.174;2023-07-29T06:53:30;1.70;;;1.60;;
9076;SDS011;4574;51.072;17.174;2023-07-29T06:56:00;1.70;;;1.30;;
9076;SDS011;4574;51.072;17.174;2023-07-29T06:58:29;1.63;;;1.53;;
9076;SDS011;4574;51.072;17.174;2023-07-29T07:00:57;1.50;;;1.40;;
9076;SDS011;4574;51.072;17.174;2023-07-29T07:03:26;1.23;;;1.10;;
9076;SDS011;4574;51.072;17.174;2023-07-29T07:05:54;1.67;;;1.40;;
9076;SDS011;4574;51.072;17.174;2023-07-29T07:08:23;1.70;;;1.53;;
9076;SDS011;4574;51.072;17.174;2023-07-29T07:10:53;1.73;;;1.30;;
9076;SDS011;4574;51.072;17.174;2023-07-29T07:13:22;1.20;;;1.10;;
9076;SDS011;4574;51.072;17.174;2023-07-29T07:15:50;1.43;;;1.30;;
9076;SDS011;4574;51.072;17.174;2023-07-29T07:18:22;1.90;;;1.40;;
9076;SDS011;4574;51.072;17.174;2023-07-29T07:20:50;1.47;;;1.37;;
9076;SDS011;4574;51.072;17.174;2023-07-29T07:23:19;1.30;;;1.20;;
9076;SDS011;4574;51.072;17.174;2023-07-29T07:25:48;1.30;;;1.20;;
9076;SDS011;4574;51.072;17.174;2023-07-29T07:28:18;1.40;;;1.30;;
9076;SDS011;4574;51.072;17.174;2023-07-29T07:30:46;1.30;;;1.20;;
9076;SDS011;4574;51.072;17.174;2023-07-29T07:33:15;3.60;;;1.20;;
9076;SDS011;4574;51.072;17.174;2023-07-29T07:35:43;1.40;;;1.30;;
9076;SDS011;4574;51.072;17.174;2023-07-29T07:38:12;2.93;;;1.20;;
9076;SDS011;4574;51.072;17.174;2023-07-29T07:40:40;1.87;;;1.23;;
9076;SDS011;4574;51.072;17.174;2023-07-29T07:43:09;1.57;;;1.30;;
9076;SDS011;4574;51.072;17.174;2023-07-29T07:45:39;1.60;;;1.30;;
9076;SDS011;4574;51.072;17.174;2023-07-29T07:48:08;1.47;;;1.20;;
9076;SDS011;4574;51.072;17.174;2023-07-29T07:50:39;1.20;;;1.20;;
9076;SDS011;4574;51.072;17.174;2023-07-29T07:53:08;1.20;;;1.17;;
9076;SDS011;4574;51.072;17.174;2023-07-29T07:55:36;1.70;;;1.20;;
9076;SDS011;4574;51.072;17.174;2023-07-29T07:58:05;1.70;;;1.20;;
9076;SDS011;4574;51.072;17.174;2023-07-29T08:00:33;1.10;;;1.10;;
9076;SDS011;4574;51.072;17.174;2023-07-29T08:03:04;3.50;;;1.20;;
9076;SDS011;4574;51.072;17.174;2023-07-29T08:05:32;0.80;;;0.80;;
9076;SDS011;4574;51.072;17.174;2023-07-29T08:08:01;1.97;;;1.10;;
9076;SDS011;4574;51.072;17.174;2023-07-29T08:10:30;1.30;;;1.20;;
9076;SDS011;4574;51.072;17.174;2023-07-29T08:12:58;1.20;;;1.20;;
9076;SDS011;4574;51.072;17.174;2023-07-29T08:15:27;1.47;;;1.37;;
9076;SDS011;4574;51.072;17.174;2023-07-29T08:17:55;3.03;;;1.10;;
9076;SDS011;4574;51.072;17.174;2023-07-29T08:20:25;1.23;;;1.20;;
9076;SDS011;4574;51.072;17.174;2023-07-29T08:22:54;1.20;;;1.20;;
9076;SDS011;4574;51.072;17.174;2023-07-29T08:25:22;1.47;;;1.07;;
9076;SDS011;4574;51.072;17.174;2023-07-29T08:27:51;3.60;;;1.03;;
9076;SDS011;4574;51.072;17.174;2023-07-29T08:30:19;1.33;;;1.23;;
9076;SDS011;4574;51.072;17.174;2023-07-29T08:32:48;1.27;;;1.10;;
9076;SDS011;4574;51.072;17.174;2023-07-29T08:35:17;1.37;;;1.23;;
9076;SDS011;4574;51.072;17.174;2023-07-29T08:37:47;2.30;;;1.03;;
9076;SDS011;4574;51.072;17.174;2023-07-29T08:40:15;3.10;;;1.00;;
9076;SDS011;4574;51.072;17.174;2023-07-29T08:42:44;1.83;;;1.20;;
9076;SDS011;4574;51.072;17.174;2023-07-29T08:45:16;1.33;;;1.23;;
9076;SDS011;4574;51.072;17.174;2023-07-29T08:47:45;0.97;;;0.93;;
9076;SDS011;4574;51.072;17.174;2023-07-29T08:50:16;0.90;;;0.90;;
9076;SDS011;4574;51.072;17.174;2023-07-29T08:52:46;1.07;;;1.00;;
9076;SDS011;4574;51.072;17.174;2023-07-29T08:55:18;2.00;;;0.93;;
9076;SDS011;4574;51.072;17.174;2023-07-29T08:57:47;1.00;;;1.00;;
9076;SDS011;4574;51.072;17.174;2023-07-29T09:00:15;2.70;;;1.10;;
9076;SDS011;4574;51.072;17.174;2023-07-29T09:02:47;0.90;;;0.90;;
9076;SDS011;4574;51.072;17.174;2023-07-29T09:05:15;1.00;;;1.00;;
9076;SDS011;4574;51.072;17.174;2023-07-29T09:07:44;0.80;;;0.80;;
9076;SDS011;4574;51.072;17.174;2023-07-29T09:10:17;3.10;;;0.90;;
9076;SDS011;4574;51.072;17.174;2023-07-29T09:12:50;1.13;;;0.90;;
9076;SDS011;4574;51.072;17.174;2023-07-29T09:15:26;1.00;;;1.00;;
9076;SDS011;4574;51.072;17.174;2023-07-29T09:17:59;1.23;;;0.93;;
9076;SDS011;4574;51.072;17.174;2023-07-29T09:20:37;0.77;;;0.77;;
9076;SDS011;4574;51.072;17.174;2023-07-29T09:23:08;1.00;;;0.90;;
9076;SDS011;4574;51.072;17.174;2023-07-29T09:25:38;0.80;;;0.80;;
9076;SDS011;4574;51.072;17.174;2023-07-29T09:28:08;0.90;;;0.90;;
9076;SDS011;4574;51.072;17.174;2023-07-29T09:30:38;1.07;;;0.97;;
9076;SDS011;4574;51.072;17.174;2023-07-29T09:33:07;1.10;;;1.00;;
9076;SDS011;4574;51.072;17.174;2023-07-29T09:35:36;2.00;;;0.90;;
9076;SDS011;4574;51.072;17.174;2023-07-29T09:38:06;0.97;;;0.90;;
9076;SDS011;4574;51.072;17.174;2023-07-29T09:40:36;0.93;;;0.90;;
9076;SDS011;4574;51.072;17.174;2023-07-29T09:43:06;1.30;;;1.00;;
9076;SDS011;4574;51.072;17.174;2023-07-29T09:45:37;2.70;;;0.97;;
9076;SDS011;4574;51.072;17.174;2023-07-29T09:48:06;0.90;;;0.90;;
9076;SDS011;4574;51.072;17.174;2023-07-29T09:50:37;0.80;;;0.80;;
9076;SDS011;4574;51.072;17.174;2023-07-29T09:53:05;0.90;;;0.90;;
9076;SDS011;4574;51.072;17.174;2023-07-29T09:55:36;1.00;;;1.00;;
9076;SDS011;4574;51.072;17.174;2023-07-29T09:58:05;1.10;;;1.00;;
9076;SDS011;4574;51.072;17.174;2023-07-29T10:00:35;1.00;;;1.00;;
9076;SDS011;4574;51.072;17.174;2023-07-29T10:03:05;1.10;;;1.10;;
9076;SDS011;4574;51.072;17.174;2023-07-29T10:05:34;1.10;;;1.10;;
9076;SDS011;4574;51.072;17.174;2023-07-29T10:08:05;3.13;;;1.03;;
9076;SDS011;4574;51.072;17.174;2023-07-29T10:10:36;1.37;;;1.27;;
9076;SDS011;4574;51.072;17.174;2023-07-29T10:13:04;1.93;;;1.40;;
9076;SDS011;4574;51.072;17.174;2023-07-29T10:15:34;2.20;;;1.40;;
9076;SDS011;4574;51.072;17.174;2023-07-29T10:18:03;1.30;;;1.23;;
9076;SDS011;4574;51.072;17.174;2023-07-29T10:20:33;1.43;;;1.30;;
9076;SDS011;4574;51.072;17.174;2023-07-29T10:23:03;1.60;;;1.50;;
9076;SDS011;4574;51.072;17.174;2023-07-29T10:25:39;2.13;;;1.50;;
9076;SDS011;4574;51.072;17.174;2023-07-29T10:28:14;3.03;;;1.80;;
9076;SDS011;4574;51.072;17.174;2023-07-29T10:30:46;2.80;;;1.63;;
9076;SDS011;4574;51.072;17.174;2023-07-29T10:33:15;2.53;;;1.50;;
9076;SDS011;4574;51.072;17.174;2023-07-29T10:35:44;2.33;;;1.57;;
9076;SDS011;4574;51.072;17.174;2023-07-29T10:38:14;4.30;;;1.87;;
9076;SDS011;4574;51.072;17.174;2023-07-29T10:40:46;2.17;;;1.90;;
9076;SDS011;4574;51.072;17.174;2023-07-29T10:43:18;1.83;;;1.70;;
9076;SDS011;4574;51.072;17.174;2023-07-29T10:45:51;3.73;;;1.80;;
9076;SDS011;4574;51.072;17.174;2023-07-29T10:48:40;1.60;;;1.50;;
9076;SDS011;4574;51.072;17.174;2023-07-29T10:51:21;1.80;;;1.70;;
9076;SDS011;4574;51.072;17.174;2023-07-29T10:53:54;2.97;;;1.50;;
9076;SDS011;4574;51.072;17.174;2023-07-29T10:56:29;4.20;;;1.60;;
9076;SDS011;4574;51.072;17.174;2023-07-29T10:58:59;1.80;;;1.70;;
9076;SDS011;4574;51.072;17.174;2023-07-29T11:01:50;1.70;;;1.60;;
9076;SDS011;4574;51.072;17.174;2023-07-29T11:04:23;1.77;;;1.67;;
9076;SDS011;4574;51.072;17.174;2023-07-29T11:09:56;1.70;;;1.60;;
9076;SDS011;4574;51.072;17.174;2023-07-29T11:12:40;2.67;;;1.70;;
9076;SDS011;4574;51.072;17.174;2023-07-29T11:15:13;1.57;;;1.47;;
9076;SDS011;4574;51.072;17.174;2023-07-29T11:17:44;1.60;;;1.50;;
9076;SDS011;4574;51.072;17.174;2023-07-29T11:20:14;1.50;;;1.40;;
9076;SDS011;4574;51.072;17.174;2023-07-29T11:22:44;2.20;;;1.50;;
9076;SDS011;4574;51.072;17.174;2023-07-29T11:25:13;1.40;;;1.40;;
9076;SDS011;4574;51.072;17.174;2023-07-29T11:27:44;1.57;;;1.47;;
9076;SDS011;4574;51.072;17.174;2023-07-29T11:30:14;4.10;;;1.70;;
9076;SDS011;4574;51.072;17.174;2023-07-29T11:32:44;1.87;;;1.37;;
9076;SDS011;4574;51.072;17.174;2023-07-29T11:35:14;1.40;;;1.20;;
9076;SDS011;4574;51.072;17.174;2023-07-29T11:37:45;1.20;;;1.20;;
9076;SDS011;4574;51.072;17.174;2023-07-29T11:40:15;1.67;;;1.40;;
9076;SDS011;4574;51.072;17.174;2023-07-29T11:42:46;1.73;;;1.40;;
9076;SDS011;4574;51.072;17.174;2023-07-29T11:45:17;1.50;;;1.40;;
9076;SDS011;4574;51.072;17.174;2023-07-29T11:47:46;1.20;;;1.10;;
9076;SDS011;4574;51.072;17.174;2023-07-29T11:50:15;1.23;;;1.20;;
9076;SDS011;4574;51.072;17.174;2023-07-29T11:52:44;1.57;;;1.40;;
9076;SDS011;4574;51.072;17.174;2023-07-29T11:55:14;1.80;;;1.57;;
9076;SDS011;4574;51.072;17.174;2023-07-29T11:57:46;1.23;;;1.13;;
9076;SDS011;4574;51.072;17.174;2023-07-29T12:00:19;1.43;;;1.33;;
9076;SDS011;4574;51.072;17.174;2023-07-29T12:02:49;1.77;;;1.30;;
9076;SDS011;4574;51.072;17.174;2023-07-29T12:05:18;1.20;;;1.20;;
9076;SDS011;4574;51.072;17.174;2023-07-29T12:07:49;4.70;;;1.33;;
9076;SDS011;4574;51.072;17.174;2023-07-29T12:10:17;2.43;;;1.17;;
9076;SDS011;4574;51.072;17.174;2023-07-29T12:12:50;1.10;;;1.10;;
9076;SDS011;4574;51.072;17.174;2023-07-29T12:15:24;1.07;;;1.00;;
9076;SDS011;4574;51.072;17.174;2023-07-29T12:17:54;1.57;;;1.20;;
9076;SDS011;4574;51.072;17.174;2023-07-29T12:20:24;1.47;;;1.10;;
9076;SDS011;4574;51.072;17.174;2023-07-29T12:22:54;2.53;;;1.20;;
9076;SDS011;4574;51.072;17.174;2023-07-29T12:25:25;1.07;;;1.07;;
9076;SDS011;4574;51.072;17.174;2023-07-29T12:27:55;1.03;;;1.03;;
9076;SDS011;4574;51.072;17.174;2023-07-29T12:30:29;1.13;;;0.93;;
9076;SDS011;4574;51.072;17.174;2023-07-29T12:32:58;5.27;;;1.30;;
9076;SDS011;4574;51.072;17.174;2023-07-29T12:35:33;1.10;;;1.00;;
9076;SDS011;4574;51.072;17.174;2023-07-29T12:38:03;2.30;;;1.10;;
9076;SDS011;4574;51.072;17.174;2023-07-29T12:40:31;0.90;;;0.90;;
9076;SDS011;4574;51.072;17.174;2023-07-29T12:43:01;1.27;;;1.17;;
9076;SDS011;4574;51.072;17.174;2023-07-29T12:45:35;1.00;;;1.00;;
9076;SDS011;4574;51.072;17.174;2023-07-29T12:48:06;1.10;;;1.10;;
9076;SDS011;4574;51.072;17.174;2023-07-29T12:50:35;1.00;;;1.00;;
9076;SDS011;4574;51.072;17.174;2023-07-29T12:53:04;1.23;;;1.13;;
9076;SDS011;4574;51.072;17.174;2023-07-29T12:55:33;0.97;;;0.97;;
9076;SDS011;4574;51.072;17.174;2023-07-29T12:58:04;0.80;;;0.80;;
9076;SDS011;4574;51.072;17.174;2023-07-29T13:00:33;2.73;;;0.90;;
9076;SDS011;4574;51.072;17.174;2023-07-29T13:03:01;1.07;;;0.93;;
9076;SDS011;4574;51.072;17.174;2023-07-29T13:05:32;0.90;;;0.90;;
9076;SDS011;4574;51.072;17.174;2023-07-29T13:08:01;0.90;;;0.90;;
9076;SDS011;4574;51.072;17.174;2023-07-29T13:10:30;0.90;;;0.90;;
9076;SDS011;4574;51.072;17.174;2023-07-29T13:12:59;2.93;;;1.23;;
9076;SDS011;4574;51.072;17.174;2023-07-29T13:15:29;1.10;;;1.00;;
9076;SDS011;4574;51.072;17.174;2023-07-29T13:17:58;6.27;;;1.10;;
9076;SDS011;4574;51.072;17.174;2023-07-29T13:20:27;2.10;;;0.93;;
9076;SDS011;4574;51.072;17.174;2023-07-29T13:22:56;1.10;;;1.00;;
9076;SDS011;4574;51.072;17.174;2023-07-29T13:25:25;3.33;;;0.80;;
9076;SDS011;4574;51.072;17.174;2023-07-29T13:27:53;0.70;;;0.70;;
9076;SDS011;4574;51.072;17.174;2023-07-29T13:30:22;0.80;;;0.80;;
9076;SDS011;4574;51.072;17.174;2023-07-29T13:32:53;1.33;;;0.90;;
9076;SDS011;4574;51.072;17.174;2023-07-29T13:35:22;0.80;;;0.80;;
9076;SDS011;4574;51.072;17.174;2023-07-29T13:37:51;1.50;;;0.90;;
9076;SDS011;4574;51.072;17.174;2023-07-29T13:40:20;2.00;;;0.80;;
9076;SDS011;4574;51.072;17.174;2023-07-29T13:42:49;1.00;;;1.00;;
9076;SDS011;4574;51.072;17.174;2023-07-29T13:45:18;0.60;;;0.60;;
9076;SDS011;4574;51.072;17.174;2023-07-29T13:47:48;1.37;;;0.90;;
9076;SDS011;4574;51.072;17.174;2023-07-29T13:50:20;1.23;;;0.80;;
9076;SDS011;4574;51.072;17.174;2023-07-29T13:52:48;0.90;;;0.80;;
9076;SDS011;4574;51.072;17.174;2023-07-29T13:55:17;1.27;;;0.77;;
9076;SDS011;4574;51.072;17.174;2023-07-29T13:57:46;0.70;;;0.70;;
9076;SDS011;4574;51.072;17.174;2023-07-29T14:00:15;1.27;;;1.17;;
9076;SDS011;4574;51.072;17.174;2023-07-29T14:02:43;0.70;;;0.70;;
9076;SDS011;4574;51.072;17.174;2023-07-29T14:05:12;0.80;;;0.80;;
9076;SDS011;4574;51.072;17.174;2023-07-29T14:07:42;1.13;;;0.83;;
9076;SDS011;4574;51.072;17.174;2023-07-29T14:10:12;0.90;;;0.90;;
9076;SDS011;4574;51.072;17.174;2023-07-29T14:12:40;1.57;;;1.00;;
9076;SDS011;4574;51.072;17.174;2023-07-29T14:15:09;3.17;;;0.90;;
9076;SDS011;4574;51.072;17.174;2023-07-29T14:17:37;0.80;;;0.80;;
9076;SDS011;4574;51.072;17.174;2023-07-29T14:20:07;0.80;;;0.80;;
9076;SDS011;4574;51.072;17.174;2023-07-29T14:22:36;0.90;;;0.90;;
9076;SDS011;4574;51.072;17.174;2023-07-29T14:25:07;2.73;;;0.63;;
9076;SDS011;4574;51.072;17.174;2023-07-29T14:27:37;0.90;;;0.90;;
9076;SDS011;4574;51.072;17.174;2023-07-29T14:30:06;0.80;;;0.80;;
9076;SDS011;4574;51.072;17.174;2023-07-29T14:32:35;0.93;;;0.80;;
9076;SDS011;4574;51.072;17.174;2023-07-29T14:35:04;2.20;;;2.10;;
9076;SDS011;4574;51.072;17.174;2023-07-29T14:37:34;2.37;;;1.67;;
9076;SDS011;4574;51.072;17.174;2023-07-29T14:40:04;2.00;;;1.03;;
9076;SDS011;4574;51.072;17.174;2023-07-29T14:42:36;0.80;;;0.80;;
9076;SDS011;4574;51.072;17.174;2023-07-29T14:45:05;2.30;;;1.13;;
9076;SDS011;4574;51.072;17.174;2023-07-29T14:47:34;2.40;;;0.90;;
9076;SDS011;4574;51.072;17.174;2023-07-29T14:50:03;3.63;;;0.90;;
9076;SDS011;4574;51.072;17.174;2023-07-29T14:52:33;1.67;;;1.57;;
9076;SDS011;4574;51.072;17.174;2023-07-29T14:55:01;1.93;;;1.00;;
9076;SDS011;4574;51.072;17.174;2023-07-29T14:57:32;1.00;;;1.00;;
9076;SDS011;4574;51.072;17.174;2023-07-29T15:00:01;0.90;;;0.90;;
9076;SDS011;4574;51.072;17.174;2023-07-29T15:02:30;3.50;;;0.87;;
9076;SDS011;4574;51.072;17.174;2023-07-29T15:04:59;1.47;;;1.00;;
9076;SDS011;4574;51.072;17.174;2023-07-29T15:07:27;1.40;;;1.10;;
9076;SDS011;4574;51.072;17.174;2023-07-29T15:09:56;1.60;;;0.90;;
9076;SDS011;4574;51.072;17.174;2023-07-29T15:12:24;0.80;;;0.80;;
9076;SDS011;4574;51.072;17.174;2023-07-29T15:14:55;0.90;;;0.90;;
9076;SDS011;4574;51.072;17.174;2023-07-29T15:17:24;1.70;;;1.60;;
9076;SDS011;4574;51.072;17.174;2023-07-29T15:19:53;1.67;;;0.80;;